createdAt,value
2018-02-13T00:00:28.434Z,12.10
2018-02-13T00:01:28.372Z,11.20
2018-02-13T00:02:28.387Z,11.60
2018-02-13T00:03:28.327Z,11.10
2018-02-13T00:04:28.297Z,10.90
2018-02-13T00:05:28.369Z,10.60
2018-02-13T00:06:28.247Z,10.80
2018-02-13T00:07:28.228Z,11.30
2018-02-13T00:08:28.243Z,10.30
2018-02-13T00:09:28.176Z,11.10
2018-02-13T00:10:28.157Z,10.90
2018-02-13T00:11:28.135Z,11.40
2018-02-13T00:12:28.087Z,11.10
2018-02-13T00:13:28.072Z,10.90
2018-02-13T00:14:28.042Z,10.60
2018-02-13T00:15:28.021Z,10.40
2018-02-13T00:16:27.985Z,10.70
2018-02-13T00:17:27.961Z,10.50
2018-02-13T00:18:27.936Z,11.00
2018-02-13T00:19:27.930Z,11.40
2018-02-13T00:20:27.894Z,10.60
2018-02-13T00:21:27.880Z,10.80
2018-02-13T00:22:27.829Z,10.90
2018-02-13T00:23:27.820Z,10.00
2018-02-13T00:24:27.779Z,11.60
2018-02-13T00:25:27.753Z,10.60
2018-02-13T00:26:27.731Z,10.30
2018-02-13T00:27:27.711Z,10.40
2018-02-13T00:28:27.676Z,10.30
2018-02-13T00:29:27.648Z,10.00
2018-02-13T00:30:27.730Z,10.50
2018-02-13T00:31:27.603Z,10.20
2018-02-13T00:32:27.581Z,10.00
2018-02-13T00:33:27.547Z,10.40
2018-02-13T00:34:27.531Z,10.00
2018-02-13T00:35:27.496Z,11.00
2018-02-13T00:36:27.468Z,10.50
2018-02-13T00:37:27.443Z,10.20
2018-02-13T00:38:27.415Z,10.20
2018-02-13T00:39:27.392Z,9.80
2018-02-13T00:40:27.364Z,9.90
2018-02-13T00:41:27.421Z,9.80
2018-02-13T00:42:27.312Z,10.10
2018-02-13T00:43:27.287Z,10.50
2018-02-13T00:44:27.367Z,9.60
2018-02-13T00:45:27.278Z,9.80
2018-02-13T00:46:27.219Z,10.30
2018-02-13T00:47:27.186Z,9.90
2018-02-13T00:48:27.160Z,9.30
2018-02-13T00:49:27.129Z,10.10
2018-02-13T00:50:27.106Z,10.50
2018-02-13T00:51:27.080Z,9.10
2018-02-13T00:52:27.057Z,10.00
2018-02-13T00:53:27.030Z,10.10
2018-02-13T00:54:27.001Z,9.70
2018-02-13T00:55:26.979Z,9.30
2018-02-13T00:56:26.950Z,9.80
2018-02-13T00:57:26.923Z,9.20
2018-02-13T00:58:26.900Z,9.60
2018-02-13T00:59:26.873Z,10.60
2018-02-13T01:00:26.844Z,9.80
2018-02-13T01:01:26.829Z,9.90
2018-02-13T01:02:26.795Z,9.60
2018-02-13T01:03:26.769Z,9.50
2018-02-13T01:04:26.741Z,9.40
2018-02-13T01:05:26.714Z,9.20
2018-02-13T01:06:26.696Z,9.40
2018-02-13T01:07:26.663Z,9.40
2018-02-13T01:08:26.639Z,9.10
2018-02-13T01:09:26.619Z,8.70
2018-02-13T01:10:26.587Z,8.70
2018-02-13T01:11:26.566Z,8.90
2018-02-13T01:12:26.536Z,9.50
2018-02-13T01:13:26.519Z,9.40
2018-02-13T01:14:26.481Z,8.70
2018-02-13T01:15:26.458Z,9.40
2018-02-13T01:16:26.430Z,9.70
2018-02-13T01:17:26.401Z,9.90
2018-02-13T01:18:26.377Z,10.20
2018-02-13T01:19:26.353Z,8.70
2018-02-13T01:20:26.326Z,9.30
2018-02-13T01:21:26.310Z,8.60
2018-02-13T01:22:26.276Z,9.40
2018-02-13T01:23:26.247Z,8.90
2018-02-13T01:24:26.222Z,8.50
2018-02-13T01:25:26.195Z,9.40
2018-02-13T01:26:26.168Z,8.60
2018-02-13T01:27:26.146Z,8.90
2018-02-13T01:28:26.115Z,8.70
2018-02-13T01:29:26.090Z,8.50
2018-02-13T01:30:26.066Z,8.60
2018-02-13T01:31:26.038Z,8.10
2018-02-13T01:32:26.016Z,9.20
2018-02-13T01:33:25.986Z,8.90
2018-02-13T01:34:25.967Z,9.10
2018-02-13T01:35:25.934Z,8.90
2018-02-13T01:36:25.909Z,8.50
2018-02-13T01:37:25.886Z,8.10
2018-02-13T01:38:25.856Z,8.10
2018-02-13T01:39:25.829Z,8.90
2018-02-13T01:40:25.803Z,8.50
2018-02-13T01:41:25.777Z,8.70
2018-02-13T01:42:25.821Z,9.00
2018-02-13T01:43:25.727Z,8.50
2018-02-13T01:44:25.700Z,8.10
2018-02-13T01:45:25.733Z,8.50
2018-02-13T01:46:25.653Z,8.50
2018-02-13T01:47:25.631Z,8.20
2018-02-13T01:48:25.657Z,8.30
2018-02-13T01:49:25.567Z,8.10
2018-02-13T01:50:25.544Z,8.30
2018-02-13T01:51:25.515Z,8.40
2018-02-13T01:52:25.493Z,7.60
2018-02-13T01:53:25.462Z,8.20
2018-02-13T01:54:25.440Z,7.90
2018-02-13T01:55:25.413Z,8.20
2018-02-13T01:56:25.385Z,8.30
2018-02-13T01:57:25.362Z,8.70
2018-02-13T01:58:25.335Z,8.50
2018-02-13T01:59:25.306Z,8.40
2018-02-13T02:00:25.283Z,7.70
2018-02-13T02:01:25.269Z,7.90
2018-02-13T02:02:25.226Z,7.80
2018-02-13T02:03:25.201Z,8.10
2018-02-13T02:04:25.212Z,7.80
2018-02-13T02:05:25.150Z,8.00
2018-02-13T02:06:25.124Z,7.80
2018-02-13T02:07:25.108Z,8.20
2018-02-13T02:08:25.070Z,7.90
2018-02-13T02:09:25.045Z,8.30
2018-02-13T02:10:25.171Z,8.80
2018-02-13T02:11:24.992Z,8.40
2018-02-13T02:12:24.966Z,8.00
2018-02-13T02:13:24.939Z,8.30
2018-02-13T02:14:24.912Z,7.80
2018-02-13T02:15:24.897Z,7.60
2018-02-13T02:16:24.862Z,8.00
2018-02-13T02:17:24.835Z,7.50
2018-02-13T02:18:24.909Z,7.30
2018-02-13T02:19:24.784Z,7.50
2018-02-13T02:20:24.764Z,8.10
2018-02-13T02:21:24.784Z,7.60
2018-02-13T02:22:24.704Z,7.30
2018-02-13T02:23:24.679Z,7.90
2018-02-13T02:24:24.661Z,7.70
2018-02-13T02:25:24.629Z,7.30
2018-02-13T02:26:24.603Z,7.60
2018-02-13T02:27:24.575Z,7.10
2018-02-13T02:28:24.554Z,7.90
2018-02-13T02:29:24.521Z,7.50
2018-02-13T02:30:24.495Z,7.40
2018-02-13T02:31:24.484Z,7.50
2018-02-13T02:32:24.442Z,7.60
2018-02-13T02:33:24.417Z,7.20
2018-02-13T02:34:24.388Z,7.40
2018-02-13T02:35:24.362Z,7.10
2018-02-13T02:36:24.342Z,7.70
2018-02-13T02:37:24.310Z,7.20
2018-02-13T02:38:24.287Z,6.70
2018-02-13T02:39:24.261Z,6.90
2018-02-13T02:40:24.235Z,7.70
2018-02-13T02:41:24.205Z,7.30
2018-02-13T02:42:24.180Z,7.00
2018-02-13T02:43:24.230Z,7.80
2018-02-13T02:44:24.127Z,7.20
2018-02-13T02:45:24.097Z,6.60
2018-02-13T02:46:24.146Z,7.30
2018-02-13T02:47:24.049Z,7.30
2018-02-13T02:48:24.020Z,6.50
2018-02-13T02:49:23.996Z,7.10
2018-02-13T02:50:23.967Z,7.30
2018-02-13T02:51:23.945Z,7.50
2018-02-13T02:52:23.917Z,6.70
2018-02-13T02:53:23.895Z,7.40
2018-02-13T02:54:23.864Z,6.70
2018-02-13T02:55:23.837Z,7.00
2018-02-13T02:56:23.809Z,6.80
2018-02-13T02:57:23.784Z,7.40
2018-02-13T02:58:23.758Z,7.20
2018-02-13T02:59:23.733Z,6.90
2018-02-13T03:00:23.709Z,7.20
2018-02-13T03:01:23.680Z,7.30
2018-02-13T03:02:23.676Z,7.40
2018-02-13T03:03:23.639Z,6.50
2018-02-13T03:04:23.604Z,7.40
2018-02-13T03:05:23.602Z,6.60
2018-02-13T03:06:23.545Z,6.70
2018-02-13T03:07:23.530Z,6.70
2018-02-13T03:08:23.495Z,6.60
2018-02-13T03:09:23.465Z,6.50
2018-02-13T03:10:23.443Z,6.50
2018-02-13T03:11:23.414Z,6.90
2018-02-13T03:12:23.389Z,6.40
2018-02-13T03:13:23.363Z,6.70
2018-02-13T03:14:23.335Z,6.40
2018-02-13T03:15:23.312Z,7.00
2018-02-13T03:16:23.384Z,6.70
2018-02-13T03:17:23.261Z,6.90
2018-02-13T03:18:23.234Z,7.20
2018-02-13T03:19:23.205Z,6.50
2018-02-13T03:20:23.182Z,6.60
2018-02-13T03:21:23.151Z,7.10
2018-02-13T03:22:23.126Z,7.10
2018-02-13T03:23:23.101Z,6.60
2018-02-13T03:24:23.071Z,6.60
2018-02-13T03:25:23.043Z,7.20
2018-02-13T03:26:23.021Z,6.80
2018-02-13T03:27:23.002Z,6.60
2018-02-13T03:28:22.974Z,6.40
2018-02-13T03:29:22.941Z,6.60
2018-02-13T03:30:22.914Z,6.60
2018-02-13T03:31:22.889Z,5.90
2018-02-13T03:32:22.859Z,6.30
2018-02-13T03:33:22.831Z,6.70
2018-02-13T03:34:22.810Z,6.50
2018-02-13T03:35:22.781Z,6.10
2018-02-13T03:36:22.754Z,5.90
2018-02-13T03:37:22.730Z,6.70
2018-02-13T03:38:22.700Z,6.80
2018-02-13T03:39:22.682Z,5.90
2018-02-13T03:40:22.649Z,6.90
2018-02-13T03:41:22.639Z,6.30
2018-02-13T03:42:22.598Z,6.50
2018-02-13T03:43:22.568Z,6.60
2018-02-13T03:44:22.642Z,6.30
2018-02-13T03:45:22.517Z,6.20
2018-02-13T03:46:22.491Z,6.60
2018-02-13T03:47:22.467Z,6.20
2018-02-13T03:48:22.438Z,6.20
2018-02-13T03:49:22.409Z,6.50
2018-02-13T03:50:22.407Z,6.20
2018-02-13T03:51:22.372Z,6.70
2018-02-13T03:52:22.333Z,5.60
2018-02-13T03:53:22.309Z,5.80
2018-02-13T03:54:22.284Z,6.00
2018-02-13T03:55:22.252Z,6.70
2018-02-13T03:56:22.227Z,6.00
2018-02-13T03:57:22.199Z,5.70
2018-02-13T03:58:22.176Z,6.00
2018-02-13T03:59:22.149Z,5.90
2018-02-13T04:00:22.122Z,6.30
2018-02-13T04:01:22.099Z,6.00
2018-02-13T04:02:22.068Z,6.20
2018-02-13T04:03:22.084Z,6.00
2018-02-13T04:04:22.018Z,5.80
2018-02-13T04:05:21.990Z,5.80
2018-02-13T04:06:21.966Z,5.40
2018-02-13T04:07:21.938Z,5.50
2018-02-13T04:08:21.963Z,6.20
2018-02-13T04:09:21.883Z,5.30
2018-02-13T04:10:21.858Z,5.50
2018-02-13T04:11:21.835Z,5.60
2018-02-13T04:12:21.811Z,5.60
2018-02-13T04:13:21.783Z,5.80
2018-02-13T04:14:21.885Z,5.50
2018-02-13T04:15:21.731Z,5.70
2018-02-13T04:16:21.705Z,5.70
2018-02-13T04:17:21.728Z,5.50
2018-02-13T04:18:21.653Z,5.60
2018-02-13T04:19:21.628Z,5.30
2018-02-13T04:20:21.624Z,5.80
2018-02-13T04:21:21.573Z,5.80
2018-02-13T04:22:21.546Z,5.70
2018-02-13T04:23:21.523Z,5.30
2018-02-13T04:24:21.494Z,5.60
2018-02-13T04:25:21.468Z,5.80
2018-02-13T04:26:21.442Z,5.70
2018-02-13T04:27:21.464Z,5.30
2018-02-13T04:28:21.393Z,5.20
2018-02-13T04:29:21.365Z,6.60
2018-02-13T04:30:21.337Z,5.60
2018-02-13T04:31:21.321Z,5.90
2018-02-13T04:32:21.289Z,5.90
2018-02-13T04:33:21.267Z,5.20
2018-02-13T04:34:21.240Z,5.50
2018-02-13T04:35:21.206Z,6.00
2018-02-13T04:36:21.181Z,5.90
2018-02-13T04:37:21.153Z,5.80
2018-02-13T04:38:21.131Z,5.50
2018-02-13T04:39:21.104Z,5.30
2018-02-13T04:40:21.081Z,5.50
2018-02-13T04:41:21.050Z,6.40
2018-02-13T04:42:21.216Z,5.60
2018-02-13T04:43:21.000Z,5.80
2018-02-13T04:44:20.972Z,5.60
2018-02-13T04:45:20.990Z,5.80
2018-02-13T04:46:20.919Z,5.80
2018-02-13T04:47:20.895Z,5.10
2018-02-13T04:48:20.874Z,5.70
2018-02-13T04:49:20.843Z,5.50
2018-02-13T04:50:20.820Z,5.50
2018-02-13T04:51:20.801Z,6.10
2018-02-13T04:52:20.765Z,5.40
2018-02-13T04:53:20.740Z,5.50
2018-02-13T04:54:20.711Z,5.70
2018-02-13T04:55:20.683Z,6.00
2018-02-13T04:56:20.740Z,6.20
2018-02-13T04:57:20.639Z,5.80
2018-02-13T04:58:20.609Z,5.50
2018-02-13T04:59:20.683Z,5.90
2018-02-13T05:00:20.552Z,5.90
2018-02-13T05:01:20.529Z,5.60
2018-02-13T05:02:20.504Z,5.60
2018-02-13T05:03:20.476Z,5.80
2018-02-13T05:04:20.500Z,5.90
2018-02-13T05:05:20.422Z,5.40
2018-02-13T05:06:20.396Z,6.00
2018-02-13T05:07:20.370Z,5.50
2018-02-13T05:08:20.345Z,6.00
2018-02-13T05:09:20.316Z,6.20
2018-02-13T05:10:20.289Z,6.20
2018-02-13T05:11:20.266Z,5.70
2018-02-13T05:12:20.238Z,5.90
2018-02-13T05:13:20.213Z,5.80
2018-02-13T05:14:20.189Z,6.60
2018-02-13T05:15:20.159Z,6.40
2018-02-13T05:16:20.135Z,6.30
2018-02-13T05:17:20.109Z,5.80
2018-02-13T05:18:20.081Z,5.90
2018-02-13T05:19:20.055Z,7.00
2018-02-13T05:20:20.030Z,6.30
2018-02-13T05:21:20.111Z,6.30
2018-02-13T05:22:19.975Z,6.50
2018-02-13T05:23:19.948Z,6.70
2018-02-13T05:24:19.990Z,6.70
2018-02-13T05:25:19.896Z,6.20
2018-02-13T05:26:19.870Z,6.30
2018-02-13T05:27:19.845Z,6.40
2018-02-13T05:28:19.820Z,6.80
2018-02-13T05:29:19.788Z,6.20
2018-02-13T05:30:19.769Z,6.50
2018-02-13T05:31:19.737Z,6.00
2018-02-13T05:32:19.711Z,6.00
2018-02-13T05:33:19.684Z,6.90
2018-02-13T05:34:19.658Z,7.60
2018-02-13T05:35:19.634Z,6.40
2018-02-13T05:36:19.606Z,6.20
2018-02-13T05:37:19.577Z,6.30
2018-02-13T05:38:19.555Z,6.60
2018-02-13T05:39:19.527Z,6.50
2018-02-13T05:40:19.499Z,5.90
2018-02-13T05:41:19.474Z,6.20
2018-02-13T05:42:19.456Z,6.40
2018-02-13T05:43:19.417Z,6.20
2018-02-13T05:44:19.393Z,5.70
2018-02-13T05:45:19.365Z,6.50
2018-02-13T05:46:19.338Z,5.70
2018-02-13T05:47:19.312Z,5.60
2018-02-13T05:48:19.287Z,5.60
2018-02-13T05:49:19.262Z,6.20
2018-02-13T05:50:19.232Z,5.70
2018-02-13T05:51:19.206Z,6.00
2018-02-13T05:52:19.182Z,5.80
2018-02-13T05:53:19.160Z,5.60
2018-02-13T05:54:19.126Z,5.60
2018-02-13T05:55:19.102Z,5.80
2018-02-13T05:56:19.074Z,5.90
2018-02-13T05:57:19.186Z,5.60
2018-02-13T05:58:19.021Z,6.20
2018-02-13T05:59:18.992Z,6.00
2018-02-13T06:00:19.015Z,5.50
2018-02-13T06:01:18.941Z,5.90
2018-02-13T06:02:18.913Z,5.60
2018-02-13T06:03:18.930Z,5.70
2018-02-13T06:04:18.862Z,5.80
2018-02-13T06:05:18.835Z,5.70
2018-02-13T06:06:18.809Z,5.80
2018-02-13T06:07:18.782Z,5.80
2018-02-13T06:08:18.765Z,5.60
2018-02-13T06:09:18.737Z,6.20
2018-02-13T06:10:18.703Z,5.80
2018-02-13T06:11:18.678Z,5.80
2018-02-13T06:12:18.660Z,5.70
2018-02-13T06:13:18.640Z,6.20
2018-02-13T06:14:18.599Z,6.10
2018-02-13T06:15:18.578Z,6.50
2018-02-13T06:16:18.547Z,5.90
2018-02-13T06:17:18.517Z,5.60
2018-02-13T06:18:18.504Z,5.30
2018-02-13T06:19:18.475Z,4.90
2018-02-13T06:20:18.443Z,5.80
2018-02-13T06:21:18.412Z,4.90
2018-02-13T06:22:18.394Z,5.20
2018-02-13T06:23:18.370Z,5.30
2018-02-13T06:24:18.637Z,5.30
2018-02-13T06:25:18.456Z,5.50
2018-02-13T06:26:18.282Z,5.00
2018-02-13T06:27:18.260Z,6.20
2018-02-13T06:28:18.274Z,5.00
2018-02-13T06:29:18.202Z,6.20
2018-02-13T06:30:18.175Z,4.90
2018-02-13T06:31:18.151Z,5.30
2018-02-13T06:32:18.128Z,5.50
2018-02-13T06:33:18.098Z,4.70
2018-02-13T06:34:18.080Z,4.90
2018-02-13T06:35:18.105Z,5.10
2018-02-13T06:36:18.045Z,5.30
2018-02-13T06:37:17.994Z,5.30
2018-02-13T06:38:17.969Z,5.10
2018-02-13T06:39:17.951Z,4.70
2018-02-13T06:40:17.924Z,5.20
2018-02-13T06:41:17.884Z,5.40
2018-02-13T06:42:17.873Z,4.60
2018-02-13T06:43:17.833Z,5.40
2018-02-13T06:44:17.806Z,4.60
2018-02-13T06:45:17.779Z,5.20
2018-02-13T06:46:17.754Z,5.40
2018-02-13T06:47:17.726Z,5.90
2018-02-13T06:48:17.704Z,4.60
2018-02-13T06:49:17.675Z,5.40
2018-02-13T06:50:17.646Z,4.90
2018-02-13T06:51:17.624Z,5.20
2018-02-13T06:52:17.594Z,5.70
2018-02-13T06:53:17.567Z,5.60
2018-02-13T06:54:17.544Z,5.20
2018-02-13T06:55:17.513Z,6.00
2018-02-13T06:56:17.497Z,5.60
2018-02-13T06:57:17.468Z,5.30
2018-02-13T06:58:17.436Z,5.30
2018-02-13T06:59:17.408Z,5.50
2018-02-13T07:00:17.388Z,5.20
2018-02-13T07:01:17.354Z,5.80
2018-02-13T07:02:17.328Z,5.80
2018-02-13T07:03:17.303Z,5.60
2018-02-13T07:04:17.384Z,5.20
2018-02-13T07:05:17.248Z,5.50
2018-02-13T07:06:17.227Z,5.60
2018-02-13T07:07:17.210Z,5.10
2018-02-13T07:08:17.228Z,5.20
2018-02-13T07:09:17.141Z,5.20
2018-02-13T07:10:17.128Z,5.60
2018-02-13T07:11:17.092Z,5.40
2018-02-13T07:12:17.063Z,5.20
2018-02-13T07:13:17.034Z,5.60
2018-02-13T07:14:17.010Z,5.90
2018-02-13T07:15:16.980Z,6.30
2018-02-13T07:16:16.957Z,5.40
2018-02-13T07:17:16.931Z,5.50
2018-02-13T07:18:16.906Z,5.60
2018-02-13T07:19:16.879Z,6.00
2018-02-13T07:20:16.853Z,5.20
2018-02-13T07:21:16.834Z,5.80
2018-02-13T07:22:16.796Z,5.60
2018-02-13T07:23:16.770Z,5.70
2018-02-13T07:24:16.741Z,5.20
2018-02-13T07:25:16.727Z,5.60
2018-02-13T07:26:16.690Z,5.20
2018-02-13T07:27:16.661Z,5.60
2018-02-13T07:28:16.638Z,5.40
2018-02-13T07:29:16.608Z,5.40
2018-02-13T07:30:16.581Z,5.30
2018-02-13T07:31:16.558Z,5.20
2018-02-13T07:32:16.534Z,5.10
2018-02-13T07:33:16.504Z,5.10
2018-02-13T07:34:16.481Z,5.40
2018-02-13T07:35:16.464Z,4.60
2018-02-13T07:36:16.423Z,5.90
2018-02-13T07:37:16.397Z,5.80
2018-02-13T07:38:16.370Z,5.70
2018-02-13T07:39:16.348Z,4.70
2018-02-13T07:40:16.317Z,4.80
2018-02-13T07:41:16.287Z,4.50
2018-02-13T07:42:16.266Z,4.70
2018-02-13T07:43:16.316Z,4.80
2018-02-13T07:44:16.215Z,4.90
2018-02-13T07:45:16.188Z,4.40
2018-02-13T07:46:16.209Z,4.70
2018-02-13T07:47:16.131Z,4.50
2018-02-13T07:48:16.108Z,4.80
2018-02-13T07:49:16.082Z,4.60
2018-02-13T07:50:16.050Z,5.10
2018-02-13T07:51:16.029Z,5.00
2018-02-13T07:52:15.999Z,4.90
2018-02-13T07:53:15.972Z,4.90
2018-02-13T07:54:15.949Z,4.70
2018-02-13T07:55:15.917Z,5.10
2018-02-13T07:56:15.894Z,5.30
2018-02-13T07:57:15.867Z,5.40
2018-02-13T07:58:15.838Z,4.50
2018-02-13T07:59:15.810Z,5.20
2018-02-13T08:00:15.785Z,5.10
2018-02-13T08:01:15.757Z,4.00
2018-02-13T08:02:15.785Z,4.60
2018-02-13T08:03:15.704Z,5.10
2018-02-13T08:04:15.677Z,4.70
2018-02-13T08:05:15.650Z,5.00
2018-02-13T08:06:15.637Z,5.00
2018-02-13T08:07:15.596Z,5.20
2018-02-13T08:08:15.580Z,5.30
2018-02-13T08:09:15.543Z,4.50
2018-02-13T08:10:15.518Z,5.50
2018-02-13T08:11:15.513Z,4.90
2018-02-13T08:12:15.464Z,4.90
2018-02-13T08:13:15.441Z,5.10
2018-02-13T08:14:15.414Z,5.10
2018-02-13T08:15:15.385Z,4.60
2018-02-13T08:16:15.363Z,4.30
2018-02-13T08:17:15.332Z,4.40
2018-02-13T08:18:15.306Z,3.80
2018-02-13T08:19:15.413Z,4.40
2018-02-13T08:20:15.259Z,4.10
2018-02-13T08:21:15.229Z,3.80
2018-02-13T08:22:15.313Z,4.30
2018-02-13T08:23:15.174Z,4.20
2018-02-13T08:24:15.153Z,4.50
2018-02-13T08:25:15.139Z,4.70
2018-02-13T08:26:15.097Z,5.30
2018-02-13T08:27:15.073Z,4.70
2018-02-13T08:28:15.048Z,4.60
2018-02-13T08:29:15.021Z,4.70
2018-02-13T08:30:14.992Z,4.30
2018-02-13T08:31:14.963Z,4.40
2018-02-13T08:32:14.941Z,5.00
2018-02-13T08:33:14.912Z,4.30
2018-02-13T08:34:14.887Z,5.30
2018-02-13T08:35:14.859Z,4.50
2018-02-13T08:36:14.832Z,4.50
2018-02-13T08:37:14.807Z,5.00
2018-02-13T08:38:14.780Z,4.30
2018-02-13T08:39:14.754Z,4.30
2018-02-13T08:40:14.730Z,4.40
2018-02-13T08:41:14.701Z,4.30
2018-02-13T08:42:14.688Z,4.80
2018-02-13T08:43:14.651Z,5.20
2018-02-13T08:44:14.623Z,6.30
2018-02-13T08:45:14.599Z,5.10
2018-02-13T08:46:14.571Z,7.20
2018-02-13T08:47:14.553Z,4.90
2018-02-13T08:48:14.520Z,4.70
2018-02-13T08:49:14.510Z,7.00
2018-02-13T08:50:14.498Z,5.40
2018-02-13T08:51:14.447Z,4.10
2018-02-13T08:52:14.419Z,4.30
2018-02-13T08:53:14.417Z,4.80
2018-02-13T08:54:14.371Z,4.40
2018-02-13T08:55:14.338Z,4.70
2018-02-13T08:56:14.314Z,5.30
2018-02-13T08:57:14.292Z,4.40
2018-02-13T08:58:14.280Z,4.60
2018-02-13T08:59:14.236Z,4.60
2018-02-13T09:00:14.212Z,4.50
2018-02-13T09:01:14.328Z,4.80
2018-02-13T09:02:14.175Z,4.30
2018-02-13T09:03:14.131Z,5.00
2018-02-13T09:04:14.115Z,4.50
2018-02-13T09:05:14.079Z,4.60
2018-02-13T09:06:14.056Z,4.40
2018-02-13T09:07:14.032Z,3.20
2018-02-13T09:08:14.015Z,4.40
2018-02-13T09:09:13.976Z,4.40
2018-02-13T09:10:13.951Z,4.80
2018-02-13T09:11:13.935Z,5.90
2018-02-13T09:12:13.903Z,4.90
2018-02-13T09:13:13.876Z,4.20
2018-02-13T09:14:13.848Z,4.30
2018-02-13T09:15:13.827Z,5.20
2018-02-13T09:16:13.805Z,4.00
2018-02-13T09:17:13.774Z,3.80
2018-02-13T09:18:13.751Z,4.50
2018-02-13T09:19:13.729Z,4.20
2018-02-13T09:20:13.695Z,4.40
2018-02-13T09:21:13.670Z,4.50
2018-02-13T09:22:13.656Z,4.50
2018-02-13T09:23:13.619Z,4.50
2018-02-13T09:24:13.596Z,4.10
2018-02-13T09:25:13.568Z,3.50
2018-02-13T09:26:13.662Z,4.00
2018-02-13T09:27:13.517Z,4.50
2018-02-13T09:28:13.490Z,4.00
2018-02-13T09:29:13.495Z,3.60
2018-02-13T09:30:13.439Z,4.00
2018-02-13T09:31:13.413Z,4.20
2018-02-13T09:32:13.423Z,4.50
2018-02-13T09:33:13.364Z,4.20
2018-02-13T09:34:13.364Z,3.80
2018-02-13T09:35:13.316Z,4.10
2018-02-13T09:36:13.293Z,3.90
2018-02-13T09:37:13.264Z,4.40
2018-02-13T09:38:13.249Z,4.20
2018-02-13T09:39:13.217Z,3.60
2018-02-13T09:40:13.192Z,4.10
2018-02-13T09:41:13.179Z,3.70
2018-02-13T09:42:13.144Z,3.80
2018-02-13T09:43:13.126Z,4.00
2018-02-13T09:44:13.099Z,4.10
2018-02-13T09:45:13.079Z,4.20
2018-02-13T09:46:13.054Z,4.40
2018-02-13T09:47:13.032Z,4.00
2018-02-13T09:48:13.015Z,3.10
2018-02-13T09:49:12.996Z,3.70
2018-02-13T09:50:12.970Z,4.40
2018-02-13T09:51:13.001Z,4.30
2018-02-13T09:52:12.930Z,4.00
2018-02-13T09:53:12.912Z,3.70
2018-02-13T09:54:12.900Z,3.40
2018-02-13T09:55:12.871Z,3.40
2018-02-13T09:56:12.851Z,4.10
2018-02-13T09:57:12.839Z,3.40
2018-02-13T09:58:12.811Z,3.90
2018-02-13T09:59:12.872Z,3.60
2018-02-13T10:00:12.775Z,3.40
2018-02-13T10:01:12.759Z,3.30
2018-02-13T10:02:12.840Z,3.30
2018-02-13T10:03:12.718Z,4.30
2018-02-13T10:04:12.702Z,4.00
2018-02-13T10:05:12.732Z,4.30
2018-02-13T10:06:12.681Z,4.30
2018-02-13T10:07:12.655Z,3.70
2018-02-13T10:08:12.638Z,3.90
2018-02-13T10:09:12.611Z,3.60
2018-02-13T10:10:12.591Z,3.90
2018-02-13T10:11:12.580Z,3.90
2018-02-13T10:12:12.557Z,3.50
2018-02-13T10:13:12.555Z,3.60
2018-02-13T10:14:12.524Z,5.00
2018-02-13T10:15:12.507Z,3.80
2018-02-13T10:16:12.487Z,3.80
2018-02-13T10:17:12.483Z,4.00
2018-02-13T10:18:12.452Z,3.90
2018-02-13T10:19:12.437Z,3.40
2018-02-13T10:20:12.427Z,3.20
2018-02-13T10:21:12.481Z,3.20
2018-02-13T10:22:12.387Z,3.70
2018-02-13T10:23:12.374Z,3.90
2018-02-13T10:24:12.352Z,4.00
2018-02-13T10:25:12.336Z,3.70
2018-02-13T10:26:12.347Z,3.80
2018-02-13T10:27:12.299Z,4.10
2018-02-13T10:28:12.285Z,4.00
2018-02-13T10:29:12.266Z,3.90
2018-02-13T10:30:12.249Z,4.00
2018-02-13T10:31:12.235Z,3.50
2018-02-13T10:32:12.217Z,4.10
2018-02-13T10:33:12.197Z,3.50
2018-02-13T10:34:12.185Z,4.00
2018-02-13T10:35:12.167Z,4.00
2018-02-13T10:36:12.149Z,3.90
2018-02-13T10:37:12.145Z,4.50
2018-02-13T10:38:12.124Z,4.10
2018-02-13T10:39:12.104Z,3.60
2018-02-13T10:40:12.084Z,3.70
2018-02-13T10:41:12.067Z,3.80
2018-02-13T10:42:12.054Z,4.00
2018-02-13T10:43:12.037Z,4.30
2018-02-13T10:44:12.034Z,4.10
2018-02-13T10:45:12.004Z,3.20
2018-02-13T10:46:11.996Z,4.20
2018-02-13T10:47:11.974Z,3.80
2018-02-13T10:48:12.043Z,4.50
2018-02-13T10:49:11.940Z,4.00
2018-02-13T10:50:11.933Z,4.20
2018-02-13T10:51:11.932Z,4.30
2018-02-13T10:52:11.893Z,3.80
2018-02-13T10:53:11.876Z,4.20
2018-02-13T10:54:11.865Z,3.60
2018-02-13T10:55:11.847Z,3.60
2018-02-13T10:56:11.832Z,3.50
2018-02-13T10:57:11.812Z,4.20
2018-02-13T10:58:11.796Z,3.90
2018-02-13T10:59:11.790Z,3.90
2018-02-13T11:00:11.767Z,4.00
2018-02-13T11:01:11.764Z,3.70
2018-02-13T11:02:11.738Z,3.90
2018-02-13T11:03:11.716Z,3.80
2018-02-13T11:04:11.700Z,4.10
2018-02-13T11:05:11.694Z,4.40
2018-02-13T11:06:11.673Z,3.90
2018-02-13T11:07:11.756Z,3.90
2018-02-13T11:08:11.642Z,3.60
2018-02-13T11:09:11.619Z,3.70
2018-02-13T11:10:11.610Z,3.50
2018-02-13T11:11:11.590Z,3.30
2018-02-13T11:12:11.573Z,3.60
2018-02-13T11:13:11.570Z,3.60
2018-02-13T11:14:11.566Z,4.00
2018-02-13T11:15:11.534Z,4.00
2018-02-13T11:16:11.509Z,3.90
2018-02-13T11:17:11.489Z,3.80
2018-02-13T11:18:11.475Z,3.70
2018-02-13T11:19:11.460Z,3.60
2018-02-13T11:20:11.445Z,3.40
2018-02-13T11:21:11.430Z,3.50
2018-02-13T11:22:11.409Z,3.40
2018-02-13T11:23:11.391Z,3.80
2018-02-13T11:24:11.375Z,3.60
2018-02-13T11:25:11.362Z,3.50
2018-02-13T11:26:11.341Z,4.00
2018-02-13T11:27:11.333Z,4.50
2018-02-13T11:28:11.317Z,3.80
2018-02-13T11:29:11.295Z,3.90
2018-02-13T11:30:11.270Z,3.80
2018-02-13T11:31:11.254Z,4.00
2018-02-13T11:32:11.240Z,3.90
2018-02-13T11:33:11.221Z,4.50
2018-02-13T11:34:11.222Z,4.30
2018-02-13T11:35:11.182Z,3.90
2018-02-13T11:36:11.166Z,4.60
2018-02-13T11:37:11.149Z,3.60
2018-02-13T11:38:11.132Z,3.90
2018-02-13T11:39:11.133Z,3.30
2018-02-13T11:40:11.118Z,3.70
2018-02-13T11:41:11.078Z,3.50
2018-02-13T11:42:11.069Z,3.90
2018-02-13T11:43:11.048Z,3.80
2018-02-13T11:44:11.037Z,4.80
2018-02-13T11:45:11.009Z,3.90
2018-02-13T11:46:10.997Z,3.80
2018-02-13T11:47:10.975Z,3.70
2018-02-13T11:48:10.955Z,3.70
2018-02-13T11:49:10.950Z,3.50
2018-02-13T11:50:10.949Z,3.80
2018-02-13T11:51:10.909Z,3.60
2018-02-13T11:52:10.885Z,3.60
2018-02-13T11:53:10.915Z,3.70
2018-02-13T11:54:10.846Z,3.70
2018-02-13T11:55:10.839Z,3.40
2018-02-13T11:56:10.815Z,3.20
2018-02-13T11:57:10.795Z,3.70
2018-02-13T11:58:10.779Z,3.20
2018-02-13T11:59:10.764Z,3.80
2018-02-13T12:00:10.736Z,3.60
2018-02-13T12:01:10.726Z,3.60
2018-02-13T12:02:10.708Z,3.30
2018-02-13T12:03:10.696Z,4.80
2018-02-13T12:04:10.684Z,5.00
2018-02-13T12:05:10.644Z,4.10
2018-02-13T12:06:10.625Z,4.60
2018-02-13T12:07:10.607Z,3.80
2018-02-13T12:08:10.598Z,3.20
2018-02-13T12:09:10.590Z,3.40
2018-02-13T12:10:10.561Z,3.60
2018-02-13T12:11:10.532Z,3.60
2018-02-13T12:12:10.546Z,4.20
2018-02-13T12:13:10.497Z,3.90
2018-02-13T12:14:10.484Z,3.90
2018-02-13T12:15:10.462Z,5.00
2018-02-13T12:16:10.444Z,4.00
2018-02-13T12:17:10.437Z,3.80
2018-02-13T12:18:10.406Z,3.70
2018-02-13T12:19:10.384Z,3.00
2018-02-13T12:20:10.394Z,3.80
2018-02-13T12:21:10.364Z,3.60
2018-02-13T12:22:10.333Z,4.00
2018-02-13T12:23:10.311Z,4.20
2018-02-13T12:24:10.292Z,3.30
2018-02-13T12:25:10.271Z,3.90
2018-02-13T12:26:10.251Z,5.40
2018-02-13T12:27:10.234Z,4.00
2018-02-13T12:28:10.216Z,3.90
2018-02-13T12:29:10.196Z,3.80
2018-02-13T12:30:10.193Z,3.40
2018-02-13T12:31:10.166Z,3.80
2018-02-13T12:32:10.152Z,3.90
2018-02-13T12:33:10.121Z,4.10
2018-02-13T12:34:10.107Z,4.70
2018-02-13T12:35:10.082Z,4.50
2018-02-13T12:36:10.064Z,6.70
2018-02-13T12:37:10.043Z,4.10
2018-02-13T12:38:10.024Z,3.60
2018-02-13T12:39:10.061Z,3.60
2018-02-13T12:40:09.984Z,3.90
2018-02-13T12:41:09.973Z,3.80
2018-02-13T12:42:09.959Z,3.50
2018-02-13T12:43:09.924Z,3.40
2018-02-13T12:44:09.909Z,4.30
2018-02-13T12:45:09.886Z,4.10
2018-02-13T12:46:09.870Z,3.20
2018-02-13T12:47:09.848Z,3.60
2018-02-13T12:48:09.829Z,3.80
2018-02-13T12:49:09.815Z,3.80
2018-02-13T12:50:09.788Z,4.10
2018-02-13T12:51:09.770Z,4.20
2018-02-13T12:52:09.755Z,3.90
2018-02-13T12:53:09.738Z,3.40
2018-02-13T12:54:09.718Z,4.10
2018-02-13T12:55:09.688Z,3.30
2018-02-13T12:56:09.669Z,3.60
2018-02-13T12:57:09.653Z,3.70
2018-02-13T12:58:09.643Z,4.30
2018-02-13T12:59:09.612Z,4.30
2018-02-13T13:00:09.590Z,3.60
2018-02-13T13:01:09.635Z,3.70
2018-02-13T13:02:09.550Z,3.40
2018-02-13T13:03:09.537Z,3.60
2018-02-13T13:04:09.510Z,3.80
2018-02-13T13:05:09.499Z,3.90
2018-02-13T13:06:09.470Z,4.20
2018-02-13T13:07:09.451Z,3.80
2018-02-13T13:08:09.428Z,3.60
2018-02-13T13:09:09.412Z,3.50
2018-02-13T13:10:09.396Z,3.50
2018-02-13T13:11:09.368Z,3.90
2018-02-13T13:12:09.393Z,3.30
2018-02-13T13:13:09.327Z,3.60
2018-02-13T13:14:09.316Z,3.90
2018-02-13T13:15:09.290Z,3.20
2018-02-13T13:16:09.282Z,3.20